Time;durP1;ratioP1;P1;durP2;ratioP2;P2;SDS_P1;SDS_P2;PMS_P1;PMS_P2;Temp;Humidity;BMP_temperature;BMP_pressure;BME280_temperature;BME280_humidity;BME280_pressure;Samples;Min_cycle;Max_cycle;Signal;HPM_P1;HPM_P2
2021/11/09 00:00:44;;;;;;;27.10;10.23;;;8.80;99.90;;;;;;5023552;28;20531;-78
2021/11/09 00:03:10;;;;;;;29.87;9.83;;;8.70;99.90;;;;;;5021884;28;20244;-78
2021/11/09 00:05:58;;;;;;;28.87;10.73;;;8.70;99.90;;;;;;5030366;28;20208;-78
2021/11/09 00:08:33;;;;;;;21.93;10.30;;;8.60;99.90;;;;;;5016096;28;20604;-77
2021/11/09 00:10:59;;;;;;;30.63;9.53;;;8.70;99.90;;;;;;5032958;28;20188;-77
2021/11/09 00:13:24;;;;;;;36.53;10.27;;;8.90;99.90;;;;;;5033108;28;20522;-77
2021/11/09 00:15:52;;;;;;;33.20;9.37;;;9.00;99.90;;;;;;5033073;28;20635;-77
2021/11/09 00:18:18;;;;;;;29.43;10.57;;;9.20;99.90;;;;;;5019581;28;20189;-78
2021/11/09 00:20:44;;;;;;;28.70;12.30;;;9.30;99.90;;;;;;5013709;28;20649;-77
2021/11/09 00:23:11;;;;;;;26.63;10.67;;;9.30;99.90;;;;;;5012871;28;20213;-89
2021/11/09 00:25:38;;;;;;;26.67;11.10;;;9.40;99.90;;;;;;4995982;28;20181;-90
2021/11/09 00:28:05;;;;;;;25.33;9.43;;;9.30;99.90;;;;;;4997358;28;20177;-89
2021/11/09 00:30:31;;;;;;;26.17;9.40;;;9.10;99.90;;;;;;4993563;28;20255;-89
2021/11/09 00:32:57;;;;;;;29.50;11.50;;;9.00;99.90;;;;;;4995789;28;20248;-90
2021/11/09 00:35:26;;;;;;;22.83;9.07;;;9.00;99.90;;;;;;4997979;28;20234;-91
2021/11/09 00:37:53;;;;;;;24.30;9.40;;;9.00;99.90;;;;;;4996909;28;20185;-90
2021/11/09 00:40:22;;;;;;;19.07;9.47;;;8.90;99.90;;;;;;4996142;28;20185;-90
2021/11/09 00:42:48;;;;;;;23.40;8.83;;;8.70;99.90;;;;;;4998278;28;20227;-89
2021/11/09 00:45:16;;;;;;;20.30;8.60;;;8.60;99.90;;;;;;5001207;28;20181;-90
2021/11/09 00:47:43;;;;;;;20.93;9.17;;;8.60;99.90;;;;;;5001462;28;20177;-90
2021/11/09 00:50:10;;;;;;;21.07;9.00;;;8.50;99.90;;;;;;4999757;28;20787;-88
2021/11/09 00:52:36;;;;;;;27.63;10.87;;;8.60;99.90;;;;;;4996232;28;20181;-90
2021/11/09 00:55:04;;;;;;;27.20;10.83;;;8.70;99.90;;;;;;4996855;28;20189;-89
2021/11/09 00:57:31;;;;;;;27.90;9.47;;;8.80;99.90;;;;;;5000859;28;20287;-88
2021/11/09 00:59:57;;;;;;;29.73;10.43;;;8.90;99.90;;;;;;4999600;28;20612;-91
2021/11/09 01:02:23;;;;;;;27.27;9.73;;;8.80;99.90;;;;;;5018616;28;20216;-91
2021/11/09 01:04:48;;;;;;;29.07;9.63;;;8.90;99.90;;;;;;4999245;28;20191;-90
2021/11/09 01:07:14;;;;;;;21.50;8.93;;;9.10;99.90;;;;;;4993363;28;20178;-90
2021/11/09 01:09:40;;;;;;;29.57;10.10;;;8.90;99.90;;;;;;4993408;28;20180;-90
2021/11/09 01:12:07;;;;;;;25.13;8.23;;;9.00;99.90;;;;;;4996765;28;20524;-91
2021/11/09 01:14:33;;;;;;;25.90;8.47;;;9.20;99.90;;;;;;4990091;28;20173;-89
2021/11/09 01:16:58;;;;;;;29.77;9.77;;;9.20;99.90;;;;;;5010067;28;20292;-88
2021/11/09 01:19:24;;;;;;;22.90;8.70;;;9.20;99.90;;;;;;4996232;28;20185;-90
2021/11/09 01:21:54;;;;;;;28.43;8.20;;;9.40;99.90;;;;;;5001168;28;20190;-89
2021/11/09 01:24:20;;;;;;;29.53;8.87;;;9.40;99.90;;;;;;5004993;28;20241;-90
2021/11/09 01:26:46;;;;;;;28.50;10.00;;;9.40;99.90;;;;;;4996414;28;20215;-90
2021/11/09 01:29:13;;;;;;;26.17;8.67;;;9.20;99.90;;;;;;4996323;28;20188;-91
2021/11/09 01:31:40;;;;;;;31.77;9.43;;;9.30;99.90;;;;;;4996331;28;20635;-90
2021/11/09 01:34:06;;;;;;;23.43;9.57;;;9.70;99.90;;;;;;5003557;28;20840;-90
2021/11/09 01:36:32;;;;;;;25.97;9.70;;;9.60;99.90;;;;;;5002309;28;20183;-90
2021/11/09 01:38:58;;;;;;;32.30;12.47;;;9.10;99.90;;;;;;5001092;28;20330;-88
2021/11/09 01:41:25;;;;;;;26.70;7.90;;;9.10;99.90;;;;;;5005413;28;20216;-90
2021/11/09 01:43:51;;;;;;;26.23;10.20;;;9.00;99.90;;;;;;4996464;28;20263;-88
2021/11/09 01:46:18;;;;;;;31.33;9.20;;;8.90;99.90;;;;;;5005575;28;20184;-88
2021/11/09 01:48:45;;;;;;;24.23;9.10;;;9.00;99.90;;;;;;4997854;28;20193;-88
2021/11/09 01:51:18;;;;;;;33.80;9.57;;;9.10;99.90;;;;;;5002368;28;20192;-87
2021/11/09 01:53:47;;;;;;;28.30;9.73;;;9.00;99.90;;;;;;4989858;28;20184;-88
2021/11/09 01:56:17;;;;;;;28.80;9.27;;;9.10;99.90;;;;;;4994973;28;20607;-87
2021/11/09 01:58:45;;;;;;;27.33;8.93;;;9.30;99.90;;;;;;4995672;28;20283;-89
2021/11/09 02:01:15;;;;;;;28.67;10.30;;;9.10;99.90;;;;;;4995970;28;20548;-90
2021/11/09 02:03:43;;;;;;;27.80;9.10;;;9.20;99.90;;;;;;5007995;28;20781;-91
2021/11/09 02:06:10;;;;;;;23.43;9.20;;;9.10;99.90;;;;;;5012919;28;20220;-88
2021/11/09 02:08:36;;;;;;;24.73;8.90;;;9.00;99.90;;;;;;5004801;28;20280;-88
2021/11/09 02:11:02;;;;;;;36.07;10.27;;;8.90;99.90;;;;;;5002277;28;20210;-89
2021/11/09 02:13:29;;;;;;;25.97;9.40;;;8.80;99.90;;;;;;5009025;28;20612;-88
2021/11/09 02:15:55;;;;;;;27.30;9.80;;;8.90;99.90;;;;;;5012914;28;20177;-87
2021/11/09 02:18:22;;;;;;;23.33;9.33;;;9.10;99.90;;;;;;5010352;28;20631;-90
2021/11/09 02:21:08;;;;;;;26.20;9.60;;;9.10;99.90;;;;;;5023578;28;20189;-88
2021/11/09 02:23:35;;;;;;;31.53;9.87;;;9.30;99.90;;;;;;4987023;28;20200;-89
2021/11/09 02:26:01;;;;;;;22.93;9.33;;;9.30;99.90;;;;;;5012580;28;20542;-91
2021/11/09 02:28:28;;;;;;;29.50;9.17;;;9.20;99.90;;;;;;4999800;28;20277;-90
2021/11/09 02:30:55;;;;;;;21.07;9.40;;;9.10;99.90;;;;;;4988084;28;20205;-90
2021/11/09 02:33:21;;;;;;;42.33;10.43;;;9.20;99.90;;;;;;4997060;28;20538;-89
2021/11/09 02:35:48;;;;;;;29.57;8.77;;;9.10;99.90;;;;;;4989835;28;20192;-89
2021/11/09 02:38:14;;;;;;;38.30;16.73;;;9.20;99.90;;;;;;4994935;28;20261;-89
2021/11/09 02:40:41;;;;;;;32.40;12.63;;;9.20;99.90;;;;;;4999190;28;20188;-90
2021/11/09 02:43:10;;;;;;;29.17;11.50;;;9.10;99.90;;;;;;5003033;28;20213;-90
2021/11/09 02:45:48;;;;;;;28.80;12.53;;;9.00;99.90;;;;;;4999326;28;20172;-89
2021/11/09 02:48:23;;;;;;;27.60;9.23;;;9.00;99.90;;;;;;4998603;28;20278;-89
2021/11/09 02:50:55;;;;;;;26.53;8.50;;;9.00;99.90;;;;;;5000750;28;20218;-90
2021/11/09 02:53:33;;;;;;;31.90;8.70;;;9.00;99.90;;;;;;5004932;28;20657;-89
2021/11/09 03:01:38;;;;;;;26.43;9.93;;;8.80;99.90;;;;;;5025187;28;20193;-89
2021/11/09 03:07:25;;;;;;;27.73;9.33;;;8.70;99.90;;;;;;4948964;29;20187;-90
2021/11/09 03:10:18;;;;;;;21.67;8.17;;;8.90;99.90;;;;;;4987599;28;20275;-89
2021/11/09 03:12:41;;;;;;;24.70;9.50;;;8.80;99.90;;;;;;5015145;28;20173;-90
2021/11/09 03:15:11;;;;;;;38.30;9.77;;;8.80;99.90;;;;;;5002878;28;20232;-90
2021/11/09 03:20:14;;;;;;;26.83;8.80;;;9.00;99.90;;;;;;5006064;28;20210;-89
2021/11/09 03:47:06;;;;;;;34.13;9.80;;;9.00;99.90;;;;;;5029416;28;20213;-90
2021/11/09 03:49:34;;;;;;;32.00;10.60;;;9.10;99.90;;;;;;5013377;28;20215;-91
2021/11/09 03:52:10;;;;;;;33.47;10.17;;;9.00;99.90;;;;;;5010869;28;20224;-90
2021/11/09 03:54:37;;;;;;;30.07;10.43;;;8.90;99.90;;;;;;5013223;28;20181;-90
2021/11/09 04:05:03;;;;;;;37.40;10.67;;;8.90;99.90;;;;;;5001870;28;20282;-90
2021/11/09 04:07:38;;;;;;;35.90;10.53;;;9.00;99.90;;;;;;5028812;28;20189;-90
2021/11/09 04:15:27;;;;;;;29.80;9.57;;;9.00;99.90;;;;;;5029689;28;20298;-90
2021/11/09 04:20:48;;;;;;;36.47;15.63;;;8.90;99.90;;;;;;5025198;28;20228;-90
2021/11/09 05:11:09;;;;;;;38.40;12.80;;;8.90;99.90;;;;;;5013987;28;20245;-91
2021/11/09 05:13:35;;;;;;;40.00;10.40;;;8.80;99.90;;;;;;5009046;28;20587;-91
2021/11/09 05:16:01;;;;;;;28.23;10.17;;;8.70;99.90;;;;;;5015773;28;20190;-90
2021/11/09 05:18:27;;;;;;;27.20;9.67;;;8.90;99.90;;;;;;5005249;28;20179;-90
2021/11/09 05:20:53;;;;;;;25.03;7.30;;;8.80;99.90;;;;;;4995667;28;20690;-90
2021/11/09 05:23:20;;;;;;;23.17;7.00;;;8.90;99.90;;;;;;4995760;28;20228;-90
2021/11/09 05:25:47;;;;;;;24.83;7.53;;;9.00;99.90;;;;;;4996399;28;20191;-90
2021/11/09 05:28:14;;;;;;;25.50;6.80;;;9.00;99.90;;;;;;4992776;28;20172;-90
2021/11/09 05:30:43;;;;;;;24.20;7.07;;;8.90;99.90;;;;;;4989866;28;20190;-90
2021/11/09 05:33:09;;;;;;;25.30;7.10;;;8.90;99.90;;;;;;4994518;28;20208;-90
2021/11/09 05:35:35;;;;;;;18.27;6.53;;;8.90;99.90;;;;;;4995877;28;20183;-91
2021/11/09 05:38:03;;;;;;;23.07;6.90;;;8.90;99.90;;;;;;4984818;28;20656;-90
2021/11/09 05:40:35;;;;;;;28.90;7.50;;;8.80;99.90;;;;;;5005067;28;20187;-90
2021/11/09 05:43:01;;;;;;;21.47;6.67;;;8.80;99.90;;;;;;5000961;28;20302;-89
2021/11/09 05:45:29;;;;;;;31.53;8.10;;;8.70;99.90;;;;;;5009355;28;20183;-90
2021/11/09 05:47:56;;;;;;;19.73;6.43;;;8.70;99.90;;;;;;4999790;28;20647;-90
2021/11/09 05:50:22;;;;;;;28.27;6.33;;;8.40;99.90;;;;;;4998458;28;20206;-90
2021/11/09 05:52:47;;;;;;;22.67;6.47;;;8.40;99.90;;;;;;4999599;28;20202;-89
2021/11/09 05:55:13;;;;;;;23.87;7.17;;;8.50;99.90;;;;;;4990437;28;20187;-90
2021/11/09 05:57:39;;;;;;;21.77;6.50;;;8.50;99.90;;;;;;4999484;28;20210;-91
2021/11/09 06:00:07;;;;;;;24.97;7.30;;;8.80;99.90;;;;;;5010995;28;20186;-90
2021/11/09 06:02:32;;;;;;;21.07;6.53;;;8.70;99.90;;;;;;4988250;28;20272;-90
2021/11/09 06:04:58;;;;;;;23.87;6.70;;;9.00;99.90;;;;;;4999547;28;20625;-90
2021/11/09 06:07:24;;;;;;;20.33;6.90;;;8.80;99.90;;;;;;5007345;28;20217;-90
2021/11/09 06:09:49;;;;;;;23.03;6.73;;;8.70;99.90;;;;;;5009303;28;20556;-91
2021/11/09 06:12:15;;;;;;;23.17;7.53;;;8.70;99.90;;;;;;5018686;28;20185;-90
2021/11/09 06:14:41;;;;;;;23.30;6.63;;;8.50;99.90;;;;;;5011248;28;20702;-90
2021/11/09 06:17:06;;;;;;;28.60;7.17;;;8.50;99.90;;;;;;5013166;28;20185;-89
2021/11/09 06:19:32;;;;;;;23.03;7.10;;;8.60;99.90;;;;;;5002234;28;20243;-90
2021/11/09 06:21:58;;;;;;;16.40;6.93;;;8.50;99.90;;;;;;5003260;28;20182;-90
2021/11/09 06:24:24;;;;;;;21.57;7.07;;;8.60;99.90;;;;;;5013186;28;20214;-90
2021/11/09 06:26:50;;;;;;;27.70;7.50;;;8.80;99.90;;;;;;5019202;28;20259;-90
2021/11/09 06:29:16;;;;;;;21.23;6.57;;;8.70;99.90;;;;;;5002150;28;20185;-89
2021/11/09 06:31:42;;;;;;;24.13;5.93;;;8.80;99.90;;;;;;4981654;28;20280;-90
2021/11/09 06:34:08;;;;;;;19.43;6.10;;;8.70;99.90;;;;;;4995873;28;20191;-88
2021/11/09 06:36:34;;;;;;;20.70;5.80;;;8.70;99.90;;;;;;5000827;28;20174;-88
2021/11/09 06:39:00;;;;;;;23.33;7.03;;;8.70;99.90;;;;;;5005347;28;20492;-90
2021/11/09 06:41:26;;;;;;;24.67;6.33;;;8.70;99.90;;;;;;4999085;28;20179;-88
2021/11/09 06:44:26;;;;;;;24.03;6.63;;;8.60;99.90;;;;;;5003031;28;20258;-93
2021/11/09 08:31:36;;;;;;;23.70;6.47;;;9.50;99.90;;;;;;5301761;23;20310;-81
2021/11/09 08:34:03;;;;;;;23.53;6.53;;;9.60;99.90;;;;;;4970465;28;20195;-81
2021/11/09 08:36:30;;;;;;;20.03;6.13;;;9.70;99.90;;;;;;4970218;28;20270;-83
2021/11/09 08:39:02;;;;;;;30.53;7.33;;;9.70;99.90;;;;;;4989436;28;20271;-82
2021/11/09 08:41:37;;;;;;;18.97;7.10;;;9.80;99.90;;;;;;4975057;28;20185;-81
2021/11/09 08:44:17;;;;;;;23.13;7.87;;;9.90;99.90;;;;;;4958952;28;20705;-81
2021/11/09 08:46:52;;;;;;;28.67;9.47;;;10.00;99.90;;;;;;4968733;28;20204;-79
2021/11/09 08:49:19;;;;;;;32.70;10.63;;;10.00;99.90;;;;;;4971681;28;20241;-81
2021/11/09 08:51:50;;;;;;;32.73;9.50;;;10.10;99.90;;;;;;4969701;28;20689;-78
2021/11/09 08:54:22;;;;;;;32.00;9.40;;;10.10;99.90;;;;;;4991085;28;20239;-80
2021/11/09 09:05:05;;;;;;;22.27;7.97;;;10.10;99.90;;;;;;4983405;28;20216;-78
2021/11/09 09:07:31;;;;;;;32.63;8.60;;;10.10;99.90;;;;;;4961311;28;20192;-83
2021/11/09 09:09:57;;;;;;;24.13;7.87;;;10.20;99.90;;;;;;4965548;28;20534;-78
2021/11/09 09:12:29;;;;;;;24.17;8.17;;;10.30;99.90;;;;;;4988751;28;20221;-80
2021/11/09 09:14:55;;;;;;;26.30;9.10;;;10.30;99.90;;;;;;4971484;28;20186;-78
2021/11/09 09:17:21;;;;;;;38.13;9.77;;;10.30;99.90;;;;;;4966931;28;20217;-78
2021/11/09 09:19:53;;;;;;;28.13;8.90;;;10.30;99.90;;;;;;4988004;28;20709;-78
2021/11/09 09:22:25;;;;;;;31.57;8.10;;;10.30;99.90;;;;;;4987132;28;20199;-78
2021/11/09 09:25:05;;;;;;;28.47;8.17;;;10.40;99.90;;;;;;4987455;28;20234;-77
2021/11/09 09:27:49;;;;;;;22.10;8.30;;;10.50;99.90;;;;;;4988731;28;20195;-78
2021/11/09 09:30:33;;;;;;;30.63;7.93;;;10.50;99.90;;;;;;4951369;28;20273;-77
2021/11/09 10:00:36;;;;;;;;;;;;;;;;;;;;;
2021/11/09 10:07:23;;;;;;;;;;;;;;;;;;;;;
2021/11/09 10:23:49;;;;;;;14.87;5.20;;;12.40;99.90;;;;;;4712110;30;20213;-83
2021/11/09 10:26:18;;;;;;;21.27;5.27;;;13.10;99.90;;;;;;4724154;29;20732;-80
2021/11/09 10:28:46;;;;;;;21.77;4.93;;;13.50;99.90;;;;;;4958900;28;20206;-83
2021/11/09 10:31:17;;;;;;;16.67;4.93;;;14.10;99.90;;;;;;4962976;28;20173;-83
2021/11/09 10:33:51;;;;;;;15.30;4.93;;;14.80;99.90;;;;;;4981103;28;20188;-80
2021/11/09 10:36:25;;;;;;;16.17;4.23;;;15.20;99.90;;;;;;4983901;28;20237;-81
2021/11/09 10:38:53;;;;;;;16.83;5.00;;;15.90;99.90;;;;;;4984793;28;20186;-82
2021/11/09 10:41:19;;;;;;;24.17;4.97;;;16.40;99.90;;;;;;4981008;28;20562;-77
2021/11/09 10:43:50;;;;;;;17.30;4.67;;;17.10;99.40;;;;;;4977059;28;20535;-81
2021/11/09 10:46:28;;;;;;;16.10;4.83;;;17.70;97.80;;;;;;4965460;28;20190;-82
2021/11/09 11:34:33;;;;;;;19.20;4.40;;;21.10;91.50;;;;;;5666454;23;20229;-77
2021/11/09 11:36:59;;;;;;;18.10;4.43;;;21.40;91.00;;;;;;4995710;28;20218;-76
2021/11/09 11:39:28;;;;;;;16.83;4.63;;;21.40;90.70;;;;;;4992017;28;20182;-76
2021/11/09 11:42:01;;;;;;;18.13;4.23;;;21.30;90.60;;;;;;4991613;28;20209;-77
2021/11/09 11:44:29;;;;;;;19.77;4.50;;;21.80;90.30;;;;;;4989254;28;20249;-76
2021/11/09 11:47:19;;;;;;;19.70;5.70;;;22.00;89.80;;;;;;4992943;28;20272;-77
2021/11/09 11:49:50;;;;;;;14.43;4.53;;;22.40;88.80;;;;;;4993269;28;20197;-76
2021/11/09 11:52:27;;;;;;;18.37;4.70;;;22.80;87.90;;;;;;4991351;28;20196;-77
2021/11/09 11:55:08;;;;;;;18.57;4.33;;;23.10;86.70;;;;;;4991788;28;20209;-77
2021/11/09 11:57:42;;;;;;;16.93;4.77;;;23.70;84.70;;;;;;4969197;28;20209;-77
2021/11/09 12:07:33;;;;;;;18.40;4.37;;;23.60;82.10;;;;;;4992909;28;20180;-93
2021/11/09 12:25:16;;;;;;;;;;;;;;;;;;;;;
2021/11/09 13:39:28;;;;;;;;;;;;;;;;;;;;;
2021/11/09 13:53:23;;;;;;;;;;;;;;;;;;;;;
2021/11/09 14:00:58;;;;;;;;;;;;;;;;;;;;;
2021/11/09 14:08:29;;;;;;;20.80;4.43;;;16.30;93.40;;;;;;4587850;31;20361;-93
2021/11/09 14:16:38;;;;;;;17.50;4.70;;;16.30;93.20;;;;;;4987415;28;20200;-76
2021/11/09 14:19:08;;;;;;;15.60;4.17;;;16.20;93.10;;;;;;4994887;28;20215;-76
2021/11/09 14:21:45;;;;;;;10.47;2.87;;;15.90;93.80;;;;;;4996372;28;20266;-77
2021/11/09 14:24:13;;;;;;;17.37;3.73;;;15.90;93.10;;;;;;5001468;28;20217;-77
2021/11/09 14:26:39;;;;;;;14.20;3.37;;;15.90;92.80;;;;;;4990383;28;20191;-77
2021/11/09 14:29:21;;;;;;;14.30;3.83;;;15.70;93.20;;;;;;4994160;28;20187;-78
2021/11/09 14:32:15;;;;;;;20.90;4.40;;;15.60;93.60;;;;;;4987861;28;20215;-77
2021/11/09 14:35:06;;;;;;;9.87;3.60;;;15.60;93.70;;;;;;4981591;28;20199;-76
2021/11/09 14:37:51;;;;;;;12.27;3.50;;;15.60;94.00;;;;;;4991191;28;20281;-78
2021/11/09 14:40:17;;;;;;;16.07;3.67;;;15.50;94.20;;;;;;4992778;28;20195;-78
2021/11/09 14:45:35;;;;;;;11.00;3.23;;;15.50;93.70;;;;;;4983449;28;20206;-77
2021/11/09 14:48:12;;;;;;;13.33;3.90;;;15.50;93.80;;;;;;4989410;28;20781;-78
2021/11/09 14:53:32;;;;;;;20.97;4.17;;;15.40;94.00;;;;;;4997105;28;20195;-76
2021/11/09 14:56:06;;;;;;;15.87;3.37;;;15.30;94.40;;;;;;4997368;28;20664;-77
2021/11/09 14:58:46;;;;;;;20.17;3.97;;;15.20;94.90;;;;;;4989880;28;20223;-78
2021/11/09 15:01:36;;;;;;;14.73;3.80;;;15.30;94.70;;;;;;4996726;28;20194;-78
2021/11/09 15:04:36;;;;;;;9.53;2.90;;;15.30;94.00;;;;;;4975731;28;20246;-76
2021/11/09 15:36:58;;;;;;;12.13;3.80;;;14.70;94.30;;;;;;5005547;28;20192;-77
2021/11/09 15:39:30;;;;;;;21.70;3.80;;;14.80;94.60;;;;;;5000834;28;20193;-78
2021/11/09 15:41:57;;;;;;;15.63;3.53;;;14.70;94.50;;;;;;4993324;28;20211;-77
2021/11/09 15:44:23;;;;;;;10.97;3.40;;;14.70;94.40;;;;;;4994159;28;20232;-76
2021/11/09 15:46:55;;;;;;;14.57;4.10;;;14.60;94.60;;;;;;4995898;28;20180;-78
2021/11/09 15:49:21;;;;;;;13.20;3.37;;;14.60;94.50;;;;;;4990905;28;20215;-78
2021/11/09 15:51:47;;;;;;;15.77;3.87;;;14.60;94.60;;;;;;4991024;28;20193;-77
2021/11/09 15:54:13;;;;;;;10.87;3.70;;;14.70;94.80;;;;;;4990879;28;20213;-75
2021/11/09 15:56:40;;;;;;;15.73;3.90;;;14.70;94.70;;;;;;4970915;28;20193;-77
2021/11/09 15:59:06;;;;;;;13.57;3.97;;;14.70;94.80;;;;;;4975885;28;20184;-77
2021/11/09 16:01:32;;;;;;;43.97;16.17;;;14.50;95.00;;;;;;4991565;28;20553;-76
2021/11/09 16:03:58;;;;;;;16.77;5.20;;;14.40;95.30;;;;;;4989945;28;20580;-77
2021/11/09 16:06:28;;;;;;;28.23;10.10;;;14.40;95.70;;;;;;4988396;28;20181;-77
2021/11/09 16:08:54;;;;;;;16.67;4.40;;;14.30;95.80;;;;;;4993213;28;20187;-75
2021/11/09 16:11:20;;;;;;;61.57;24.23;;;14.00;96.40;;;;;;4992469;28;20186;-76
2021/11/09 16:13:46;;;;;;;37.63;18.53;;;14.00;96.40;;;;;;4996198;28;20191;-76
2021/11/09 16:53:18;;;;;;;27.77;16.63;;;12.90;99.90;;;;;;4797794;29;20234;-78
2021/11/09 18:20:06;;;;;;;24.30;8.50;;;11.00;99.90;;;;;;4994247;28;20653;-77
2021/11/09 18:22:35;;;;;;;23.50;10.30;;;11.10;99.90;;;;;;4995628;28;20607;-77
2021/11/09 18:25:03;;;;;;;32.60;14.20;;;11.00;99.90;;;;;;4989652;28;20678;-77
2021/11/09 18:27:28;;;;;;;26.67;10.57;;;11.20;99.90;;;;;;4988753;28;20182;-78
2021/11/09 18:29:54;;;;;;;27.77;10.53;;;11.10;99.90;;;;;;4992539;28;20662;-81
2021/11/09 18:32:21;;;;;;;32.33;14.90;;;11.00;99.90;;;;;;4988140;28;20198;-81
2021/11/09 18:34:47;;;;;;;37.37;15.00;;;10.90;99.90;;;;;;4997928;28;20183;-85
2021/11/09 18:37:19;;;;;;;31.43;12.70;;;10.80;99.90;;;;;;4998201;28;20674;-83
2021/11/09 18:39:46;;;;;;;34.53;15.53;;;10.70;99.90;;;;;;4983411;28;20217;-80
2021/11/09 18:42:13;;;;;;;27.67;11.23;;;10.80;99.90;;;;;;4980474;28;20187;-84
2021/11/09 18:44:39;;;;;;;26.77;12.37;;;10.70;99.90;;;;;;5010577;28;20225;-83
2021/11/09 18:47:07;;;;;;;26.43;13.20;;;10.70;99.90;;;;;;4979318;28;20280;-85
2021/11/09 18:49:34;;;;;;;40.17;16.07;;;10.70;99.90;;;;;;4979136;28;20221;-84
2021/11/09 18:52:00;;;;;;;29.80;15.30;;;10.70;99.90;;;;;;4977506;28;20198;-82
2021/11/09 18:54:26;;;;;;;39.27;17.10;;;10.60;99.90;;;;;;4995484;28;20206;-80
2021/11/09 18:56:52;;;;;;;38.97;19.80;;;10.60;99.90;;;;;;4976302;28;20538;-83
2021/11/09 18:59:19;;;;;;;37.27;18.63;;;10.50;99.90;;;;;;4994234;28;20265;-83
2021/11/09 19:01:47;;;;;;;29.43;13.50;;;10.50;99.90;;;;;;4979339;28;20207;-80
2021/11/09 19:04:13;;;;;;;32.83;13.70;;;10.50;99.90;;;;;;4994800;28;20586;-83
2021/11/09 19:06:41;;;;;;;36.70;17.23;;;10.40;99.90;;;;;;4975354;28;20198;-82
2021/11/09 19:09:07;;;;;;;45.67;18.53;;;10.40;99.90;;;;;;4978623;28;20186;-79
2021/11/09 19:11:34;;;;;;;47.87;22.33;;;10.50;99.90;;;;;;4992373;28;20269;-84
2021/11/09 19:13:59;;;;;;;48.97;21.63;;;10.60;99.90;;;;;;4984662;28;20193;-82
2021/11/09 19:16:25;;;;;;;46.83;18.37;;;10.60;99.90;;;;;;4973062;28;20639;-80
2021/11/09 19:18:50;;;;;;;35.37;16.60;;;10.90;99.90;;;;;;4993917;28;20680;-83
2021/11/09 19:21:16;;;;;;;45.63;16.57;;;10.80;99.90;;;;;;4990399;28;20558;-78
2021/11/09 19:23:42;;;;;;;34.03;16.03;;;10.60;99.90;;;;;;4995487;28;20216;-83
2021/11/09 19:26:09;;;;;;;42.37;15.70;;;10.50;99.90;;;;;;4969199;28;20198;-82
2021/11/09 19:28:40;;;;;;;38.00;15.27;;;10.40;99.90;;;;;;4973282;28;20344;-78
2021/11/09 19:31:07;;;;;;;32.23;16.07;;;10.30;99.90;;;;;;4989070;28;20554;-80
2021/11/09 19:33:36;;;;;;;37.20;17.00;;;10.30;99.90;;;;;;4994852;28;20174;-81
2021/11/09 19:36:04;;;;;;;37.77;14.93;;;10.20;99.90;;;;;;4977642;28;20188;-82
2021/11/09 19:38:30;;;;;;;37.40;16.60;;;10.20;99.90;;;;;;4978377;28;20212;-79
2021/11/09 19:40:57;;;;;;;39.67;19.37;;;10.10;99.90;;;;;;4978011;28;20705;-81
2021/11/09 19:43:22;;;;;;;40.83;17.13;;;10.10;99.90;;;;;;4995094;28;20221;-82
2021/11/09 19:45:49;;;;;;;39.47;18.00;;;10.10;99.90;;;;;;4995430;28;20178;-87
2021/11/09 19:48:15;;;;;;;38.37;17.27;;;10.10;99.90;;;;;;4973749;28;20186;-83
2021/11/09 19:50:48;;;;;;;46.87;20.27;;;10.00;99.90;;;;;;4995159;28;20185;-85
2021/11/09 19:53:17;;;;;;;54.30;24.23;;;10.10;99.90;;;;;;4976274;28;20297;-82
2021/11/09 19:55:45;;;;;;;41.83;19.10;;;10.20;99.90;;;;;;4994780;28;20177;-87
2021/11/09 19:58:14;;;;;;;45.13;20.00;;;10.20;99.90;;;;;;4988153;28;20236;-86
2021/11/09 20:00:45;;;;;;;46.77;21.70;;;10.10;99.90;;;;;;4977657;28;20186;-86
2021/11/09 20:03:11;;;;;;;47.40;23.40;;;10.00;99.90;;;;;;4991024;28;20190;-86
2021/11/09 20:05:43;;;;;;;49.57;22.47;;;10.00;99.90;;;;;;4994513;28;20276;-85
2021/11/09 20:08:13;;;;;;;56.43;24.03;;;10.20;99.90;;;;;;4967600;28;20218;-85
2021/11/09 20:10:44;;;;;;;48.00;23.40;;;10.40;99.90;;;;;;4988629;28;20190;-86
2021/11/09 20:13:13;;;;;;;51.57;23.20;;;10.30;99.90;;;;;;4977320;28;20666;-86
2021/11/09 20:15:44;;;;;;;47.40;22.67;;;10.50;99.90;;;;;;4977221;28;20186;-84
2021/11/09 20:18:10;;;;;;;54.17;23.00;;;10.80;99.90;;;;;;4994932;28;20270;-85
2021/11/09 20:20:38;;;;;;;48.30;22.23;;;11.00;99.90;;;;;;4994611;28;20282;-83
2021/11/09 20:23:05;;;;;;;49.50;22.20;;;11.00;99.90;;;;;;4994471;28;20194;-85
2021/11/09 20:25:31;;;;;;;44.33;21.17;;;11.00;99.90;;;;;;4994234;28;20201;-84
2021/11/09 20:27:57;;;;;;;44.37;22.60;;;10.90;99.90;;;;;;4994603;28;20185;-86
2021/11/09 20:30:25;;;;;;;50.37;21.97;;;10.60;99.90;;;;;;4987988;28;20206;-85
2021/11/09 20:32:51;;;;;;;49.43;24.70;;;10.60;99.90;;;;;;4988799;28;20182;-83
2021/11/09 20:35:19;;;;;;;48.63;25.10;;;10.70;99.90;;;;;;4985894;28;20174;-85
2021/11/09 20:37:46;;;;;;;55.07;25.50;;;10.90;99.90;;;;;;4977493;28;20186;-86
2021/11/09 20:40:12;;;;;;;49.03;23.40;;;11.00;99.90;;;;;;4976801;28;20260;-85
2021/11/09 20:42:42;;;;;;;50.33;22.83;;;11.10;99.90;;;;;;4976075;28;20293;-86
2021/11/09 20:45:09;;;;;;;43.47;20.60;;;11.10;99.90;;;;;;4973817;28;20237;-86
2021/11/09 20:47:34;;;;;;;44.03;19.67;;;11.10;99.90;;;;;;4993643;28;20233;-79
2021/11/09 20:50:01;;;;;;;50.60;20.43;;;11.00;99.90;;;;;;4975934;28;20190;-82
2021/11/09 20:52:27;;;;;;;38.13;16.40;;;10.60;99.90;;;;;;4962707;28;20205;-80
2021/11/09 20:54:52;;;;;;;42.60;16.67;;;10.50;99.90;;;;;;4991151;28;20213;-80
2021/11/09 20:57:18;;;;;;;38.53;16.47;;;10.70;99.90;;;;;;4971227;28;20181;-80
2021/11/09 20:59:44;;;;;;;48.77;16.23;;;10.80;99.90;;;;;;4975774;28;20531;-79
2021/11/09 21:02:10;;;;;;;31.47;14.70;;;10.90;99.90;;;;;;4975403;28;20609;-83
2021/11/09 21:04:36;;;;;;;32.27;15.50;;;10.80;99.90;;;;;;4989181;28;20206;-80
2021/11/09 21:07:02;;;;;;;38.60;15.90;;;10.70;99.90;;;;;;4986724;28;20220;-81
2021/11/09 21:09:28;;;;;;;39.00;14.37;;;10.50;99.90;;;;;;4970845;28;20273;-80
2021/11/09 21:11:57;;;;;;;37.60;15.40;;;10.70;99.90;;;;;;4985009;28;20245;-80
2021/11/09 21:19:52;;;;;;;34.97;15.80;;;10.60;99.90;;;;;;4989973;28;20205;-83
2021/11/09 21:22:19;;;;;;;43.53;16.23;;;10.40;99.90;;;;;;4992292;28;20260;-81
2021/11/09 21:24:45;;;;;;;30.07;14.53;;;10.20;99.90;;;;;;4975073;28;20245;-80
2021/11/09 21:27:10;;;;;;;37.30;15.93;;;10.10;99.90;;;;;;4985490;28;20545;-79
2021/11/09 21:32:38;;;;;;;32.97;15.17;;;10.30;99.90;;;;;;4990616;28;20206;-84
2021/11/09 21:35:13;;;;;;;33.83;14.50;;;10.10;99.90;;;;;;4972959;28;20186;-79
2021/11/09 21:37:42;;;;;;;35.20;15.80;;;9.80;99.90;;;;;;4990264;28;20697;-79
2021/11/09 21:40:13;;;;;;;32.97;14.47;;;9.60;99.90;;;;;;4993055;28;20178;-80
2021/11/09 21:42:40;;;;;;;35.07;14.50;;;9.40;99.90;;;;;;4985004;28;20198;-80
2021/11/09 21:45:08;;;;;;;37.70;15.40;;;9.30;99.90;;;;;;4975045;28;20217;-80
2021/11/09 21:47:35;;;;;;;41.77;19.77;;;9.20;99.90;;;;;;4982750;28;20605;-84
2021/11/09 21:50:03;;;;;;;41.23;18.37;;;9.30;99.90;;;;;;4988841;28;20186;-80
2021/11/09 21:52:29;;;;;;;36.07;16.53;;;9.40;99.90;;;;;;4984292;28;20190;-82
2021/11/09 21:54:54;;;;;;;30.77;15.70;;;9.40;99.90;;;;;;4975013;28;20209;-83
2021/11/09 21:57:20;;;;;;;35.77;15.17;;;9.50;99.90;;;;;;4992367;28;20226;-79
2021/11/09 21:59:46;;;;;;;35.77;14.97;;;9.30;99.90;;;;;;4990122;28;20193;-85
2021/11/09 22:02:11;;;;;;;32.63;16.40;;;9.30;99.90;;;;;;4983205;28;20713;-81
2021/11/09 22:04:37;;;;;;;34.43;16.40;;;9.30;99.90;;;;;;4985135;28;20753;-78
2021/11/09 22:07:03;;;;;;;39.13;16.90;;;9.40;99.90;;;;;;4991242;28;20196;-81
2021/11/09 22:09:29;;;;;;;41.77;16.97;;;9.50;99.90;;;;;;4986797;28;20242;-82
2021/11/09 22:11:54;;;;;;;35.60;15.60;;;9.40;99.90;;;;;;4980543;28;20181;-79
2021/11/09 22:14:27;;;;;;;43.00;19.20;;;9.30;99.90;;;;;;4979958;28;20582;-80
2021/11/09 22:16:53;;;;;;;42.00;17.97;;;9.40;99.90;;;;;;4973255;28;20197;-82
2021/11/09 22:19:18;;;;;;;43.03;22.47;;;9.40;99.90;;;;;;4963552;28;20189;-81
2021/11/09 22:21:44;;;;;;;36.30;17.70;;;9.20;99.90;;;;;;4990600;28;20613;-80
2021/11/09 22:24:10;;;;;;;40.73;18.47;;;9.10;99.90;;;;;;4974655;28;20229;-79
2021/11/09 22:26:35;;;;;;;37.87;18.50;;;9.00;99.90;;;;;;4992040;28;20193;-83
2021/11/09 22:29:01;;;;;;;37.93;16.60;;;9.10;99.90;;;;;;4995436;28;20229;-85
2021/11/09 22:31:27;;;;;;;30.83;16.23;;;9.00;99.90;;;;;;4974503;28;20266;-84
2021/11/09 22:33:53;;;;;;;35.77;15.83;;;9.00;99.90;;;;;;4994890;28;20634;-85
2021/11/09 22:36:18;;;;;;;33.03;17.00;;;9.00;99.90;;;;;;4974249;28;20182;-84
2021/11/09 22:38:44;;;;;;;37.47;15.93;;;8.90;99.90;;;;;;4990933;28;20559;-81
2021/11/09 22:41:10;;;;;;;34.93;15.23;;;9.10;99.90;;;;;;4988739;28;20188;-83
2021/11/09 22:43:35;;;;;;;32.70;16.37;;;9.20;99.90;;;;;;4989092;28;20580;-82